createdAt,value
2019-03-18T00:00:05.034Z,99.90
2019-03-18T00:02:35.665Z,99.90
2019-03-18T00:05:06.416Z,99.90
2019-03-18T00:07:37.073Z,99.90
2019-03-18T00:10:08.059Z,99.90
2019-03-18T00:12:38.812Z,99.90
2019-03-18T00:15:09.524Z,99.90
2019-03-18T00:17:40.589Z,99.90
2019-03-18T00:20:11.835Z,99.90
2019-03-18T00:22:42.790Z,99.90
2019-03-18T00:25:13.727Z,99.90
2019-03-18T00:27:44.533Z,99.90
2019-03-18T00:30:16.153Z,99.90
2019-03-18T00:32:46.866Z,99.90
2019-03-18T00:35:17.649Z,99.90
2019-03-18T00:37:48.247Z,99.90
2019-03-18T00:40:18.955Z,99.90
2019-03-18T00:42:49.653Z,99.90
2019-03-18T00:45:20.237Z,99.90
2019-03-18T00:47:50.839Z,99.90
2019-03-18T00:50:21.755Z,99.90
2019-03-18T00:52:52.506Z,99.90
2019-03-18T00:55:23.089Z,99.90
2019-03-18T00:57:53.769Z,99.90
2019-03-18T01:00:24.453Z,99.90
2019-03-18T01:02:55.358Z,99.90
2019-03-18T01:05:26.291Z,99.90
2019-03-18T01:07:56.982Z,99.90
2019-03-18T01:10:27.826Z,99.90
2019-03-18T01:12:58.439Z,99.90
2019-03-18T01:15:29.160Z,99.90
2019-03-18T01:18:00.023Z,99.90
2019-03-18T01:20:30.604Z,99.90
2019-03-18T01:23:01.280Z,99.90
2019-03-18T01:25:31.852Z,99.90
2019-03-18T01:28:02.438Z,99.90
2019-03-18T01:30:33.169Z,99.90
2019-03-18T01:33:04.120Z,99.90
2019-03-18T01:35:34.720Z,99.90
2019-03-18T01:38:05.465Z,99.90
2019-03-18T01:40:36.059Z,99.90
2019-03-18T01:43:06.954Z,99.90
2019-03-18T01:45:41.027Z,99.90
2019-03-18T01:48:10.352Z,99.90
2019-03-18T01:50:41.297Z,99.90
2019-03-18T01:53:12.238Z,99.90
2019-03-18T01:55:42.819Z,99.90
2019-03-18T01:58:13.411Z,99.90
2019-03-18T02:00:44.104Z,99.90
2019-03-18T02:03:14.753Z,99.90
2019-03-18T02:05:45.350Z,99.90
2019-03-18T02:08:16.104Z,99.90
2019-03-18T02:10:46.676Z,99.90
2019-03-18T02:13:17.318Z,99.90
2019-03-18T02:15:53.228Z,99.90
2019-03-18T02:18:20.321Z,99.90
2019-03-18T02:20:51.257Z,99.90
2019-03-18T02:23:22.411Z,99.90
2019-03-18T02:25:52.976Z,99.90
2019-03-18T02:28:23.565Z,99.90
2019-03-18T02:30:54.255Z,99.90
2019-03-18T02:33:24.834Z,99.90
2019-03-18T02:35:55.778Z,99.90
2019-03-18T02:38:26.486Z,99.90
2019-03-18T02:40:57.101Z,99.90
2019-03-18T02:43:27.691Z,99.90
2019-03-18T02:46:10.154Z,99.90
2019-03-18T02:48:30.673Z,99.90
2019-03-18T02:51:01.333Z,99.90
2019-03-18T02:53:31.944Z,99.90
2019-03-18T02:56:02.512Z,99.90
2019-03-18T02:58:33.230Z,99.90
2019-03-18T03:01:03.814Z,99.90
2019-03-18T03:03:36.931Z,99.90
2019-03-18T03:06:06.871Z,99.90
2019-03-18T03:08:37.550Z,99.90
2019-03-18T03:11:08.133Z,99.90
2019-03-18T03:13:38.871Z,99.90
2019-03-18T03:16:20.384Z,99.90
2019-03-18T03:18:42.461Z,99.90
2019-03-18T03:21:13.057Z,99.90
2019-03-18T03:23:43.728Z,99.90
2019-03-18T03:26:14.319Z,99.90
2019-03-18T03:28:45.228Z,99.90
2019-03-18T03:31:15.846Z,99.90
2019-03-18T03:33:46.705Z,99.90
2019-03-18T03:36:17.580Z,99.90
2019-03-18T03:38:48.319Z,99.90
2019-03-18T03:41:18.952Z,99.90
2019-03-18T03:43:49.551Z,99.90
2019-03-18T03:46:20.609Z,99.90
2019-03-18T03:48:51.188Z,99.90
2019-03-18T03:51:22.081Z,99.90
2019-03-18T03:53:52.979Z,99.90
2019-03-18T03:56:24.320Z,99.90
2019-03-18T03:58:54.899Z,99.90
2019-03-18T04:01:29.275Z,99.90
2019-03-18T04:03:57.794Z,99.90
2019-03-18T04:06:29.408Z,99.90
2019-03-18T04:09:00.101Z,99.90
2019-03-18T04:11:30.701Z,99.90
2019-03-18T04:14:01.628Z,99.90
2019-03-18T04:16:32.322Z,99.90
2019-03-18T04:19:02.905Z,99.90
2019-03-18T04:21:34.299Z,99.90
2019-03-18T04:24:04.944Z,99.90
2019-03-18T04:26:35.546Z,99.90
2019-03-18T04:29:06.122Z,99.90
2019-03-18T04:31:36.814Z,99.90
2019-03-18T04:34:08.323Z,99.90
2019-03-18T04:36:38.923Z,99.90
2019-03-18T04:39:09.952Z,99.90
2019-03-18T04:41:40.552Z,99.90
2019-03-18T04:44:11.441Z,99.90
2019-03-18T04:46:42.141Z,99.90
2019-03-18T04:49:12.806Z,99.90
2019-03-18T04:51:43.759Z,99.90
2019-03-18T04:54:14.334Z,99.90
2019-03-18T04:56:44.921Z,99.90
2019-03-18T04:59:15.509Z,99.90
2019-03-18T05:01:46.126Z,99.90
2019-03-18T05:04:16.854Z,99.90
2019-03-18T05:06:47.452Z,99.90
2019-03-18T05:09:18.364Z,99.90
2019-03-18T05:11:49.069Z,99.90
2019-03-18T05:14:19.968Z,99.90
2019-03-18T05:16:50.551Z,99.90
2019-03-18T05:19:21.255Z,99.90
2019-03-18T05:21:51.844Z,99.90
2019-03-18T05:24:22.769Z,99.90
2019-03-18T05:26:53.466Z,99.90
2019-03-18T05:29:24.036Z,99.90
2019-03-18T05:31:54.995Z,99.90
2019-03-18T05:34:25.658Z,99.90
2019-03-18T05:36:56.228Z,99.90
2019-03-18T05:39:26.814Z,99.90
2019-03-18T05:41:57.771Z,99.90
2019-03-18T05:44:28.343Z,99.90
2019-03-18T05:46:58.952Z,99.90
2019-03-18T05:49:29.629Z,99.90
2019-03-18T05:52:00.558Z,99.90
2019-03-18T05:54:31.142Z,99.90
2019-03-18T05:57:01.846Z,99.90
2019-03-18T05:59:32.702Z,99.90
2019-03-18T06:02:03.408Z,99.90
2019-03-18T06:04:34.374Z,99.90
2019-03-18T06:07:05.326Z,99.90
2019-03-18T06:09:35.907Z,99.90
2019-03-18T06:12:06.567Z,99.90
2019-03-18T06:14:37.136Z,99.90
2019-03-18T06:17:07.707Z,99.90
2019-03-18T06:19:38.343Z,99.90
2019-03-18T06:22:08.934Z,99.90
2019-03-18T06:24:39.488Z,99.90
2019-03-18T06:27:10.512Z,99.90
2019-03-18T06:29:41.093Z,99.90
2019-03-18T06:32:12.034Z,99.90
2019-03-18T06:34:42.738Z,99.90
2019-03-18T06:37:13.362Z,99.90
2019-03-18T06:39:43.933Z,99.90
2019-03-18T06:42:14.892Z,99.90
2019-03-18T06:44:45.831Z,99.90
2019-03-18T06:47:16.415Z,99.90
2019-03-18T06:49:47.028Z,99.90
2019-03-18T06:52:17.960Z,99.90
2019-03-18T06:54:48.536Z,99.90
2019-03-18T06:57:19.241Z,99.90
2019-03-18T06:59:49.814Z,99.90
2019-03-18T07:02:20.513Z,99.90
2019-03-18T07:04:51.087Z,99.90
2019-03-18T07:07:21.657Z,99.90
2019-03-18T07:09:52.622Z,99.90
2019-03-18T07:12:23.209Z,99.90
2019-03-18T07:14:53.782Z,99.90
2019-03-18T07:17:24.403Z,99.90
2019-03-18T07:19:54.983Z,99.90
2019-03-18T07:22:25.660Z,99.90
2019-03-18T07:24:56.610Z,99.90
2019-03-18T07:27:27.201Z,99.90
2019-03-18T07:29:57.849Z,99.90
2019-03-18T07:32:28.539Z,99.90
2019-03-18T07:34:59.228Z,99.90
2019-03-18T07:37:29.825Z,99.90
2019-03-18T07:40:00.489Z,99.90
2019-03-18T07:42:31.759Z,99.90
2019-03-18T07:45:02.688Z,99.90
2019-03-18T07:47:33.620Z,99.90
2019-03-18T07:50:04.548Z,99.90
2019-03-18T07:52:35.254Z,99.90
2019-03-18T07:55:06.134Z,99.90
2019-03-18T07:57:36.829Z,99.90
2019-03-18T08:00:07.448Z,99.90
2019-03-18T08:02:38.045Z,99.90
2019-03-18T08:05:09.774Z,99.90
2019-03-18T08:07:40.366Z,99.90
2019-03-18T08:10:11.208Z,99.90
2019-03-18T08:12:42.234Z,99.90
2019-03-18T08:15:12.835Z,99.90
2019-03-18T08:17:43.536Z,99.90
2019-03-18T08:20:14.686Z,99.30
2019-03-18T08:22:45.226Z,1.00
2019-03-18T08:25:15.751Z,1.00
2019-03-18T08:27:46.597Z,99.90
2019-03-18T08:30:17.288Z,1.00
2019-03-18T08:32:48.218Z,99.90
2019-03-18T08:35:18.800Z,99.90
2019-03-18T08:37:49.522Z,99.90
2019-03-18T08:40:20.756Z,36.60
2019-03-18T08:42:51.424Z,99.90
2019-03-18T08:45:22.421Z,99.90
2019-03-18T08:47:53.372Z,69.90
2019-03-18T08:50:24.310Z,99.90
2019-03-18T08:52:54.937Z,99.90
2019-03-18T08:55:25.531Z,1.00
2019-03-18T08:57:56.296Z,67.50
2019-03-18T09:00:26.886Z,99.90
2019-03-18T09:02:57.587Z,99.90
2019-03-18T09:05:28.199Z,1.00
2019-03-18T09:07:58.791Z,1.00
2019-03-18T09:10:29.733Z,1.00
2019-03-18T09:13:00.625Z,99.90
2019-03-18T09:15:31.539Z,16.00
2019-03-18T09:18:02.304Z,1.00
2019-03-18T09:20:32.887Z,99.90
2019-03-18T09:23:04.043Z,1.00
2019-03-18T09:25:34.809Z,1.00
2019-03-18T09:28:05.402Z,1.00
2019-03-18T09:30:36.689Z,1.00
2019-03-18T09:33:07.845Z,99.90
2019-03-18T09:35:38.432Z,1.00
2019-03-18T09:38:09.037Z,1.00
2019-03-18T09:40:40.451Z,1.00
2019-03-18T09:43:11.390Z,1.00
2019-03-18T09:45:42.274Z,1.00
2019-03-18T09:48:13.376Z,99.90
2019-03-18T09:50:44.364Z,1.00
2019-03-18T09:53:15.249Z,1.00
2019-03-18T09:55:46.061Z,1.00
2019-03-18T09:58:16.661Z,1.00
2019-03-18T10:00:47.236Z,41.50
2019-03-18T10:03:18.053Z,1.00
2019-03-18T10:05:48.638Z,99.90
2019-03-18T10:08:19.559Z,99.90
2019-03-18T10:10:50.298Z,99.90
2019-03-18T10:13:20.971Z,99.90
2019-03-18T10:15:51.916Z,34.70
2019-03-18T10:18:22.628Z,1.00
2019-03-18T10:20:53.198Z,1.00
2019-03-18T10:23:23.869Z,36.90
2019-03-18T10:25:54.607Z,1.00
2019-03-18T10:28:25.567Z,1.00
2019-03-18T10:30:56.173Z,99.90
2019-03-18T10:33:26.911Z,99.90
2019-03-18T10:35:57.502Z,1.00
2019-03-18T10:38:28.100Z,99.90
2019-03-18T10:40:59.932Z,99.90
2019-03-18T10:43:30.644Z,1.00
2019-03-18T10:46:01.249Z,99.90
2019-03-18T10:48:32.297Z,99.90
2019-03-18T10:51:03.402Z,1.00
2019-03-18T10:53:34.763Z,1.00
2019-03-18T10:56:07.984Z,1.00
2019-03-18T10:58:37.760Z,1.00
2019-03-18T11:01:08.913Z,99.90
2019-03-18T11:03:39.854Z,99.90
2019-03-18T11:06:10.451Z,99.90
2019-03-18T11:08:41.167Z,99.90
2019-03-18T11:11:11.772Z,1.00
2019-03-18T11:13:42.684Z,1.00
2019-03-18T11:16:13.488Z,1.00
2019-03-18T11:18:44.451Z,1.00
2019-03-18T11:21:15.735Z,99.90
2019-03-18T11:23:46.501Z,99.90
2019-03-18T11:26:17.760Z,99.90
2019-03-18T11:28:48.357Z,99.90
2019-03-18T11:31:19.102Z,99.90
2019-03-18T11:33:50.059Z,99.90
2019-03-18T11:36:20.956Z,99.90
2019-03-18T11:38:51.990Z,99.90
2019-03-18T11:41:22.596Z,99.90
2019-03-18T11:43:53.540Z,99.90
2019-03-18T11:46:24.341Z,99.90
2019-03-18T11:48:54.913Z,99.90
2019-03-18T11:51:25.708Z,99.90
2019-03-18T11:53:56.430Z,99.90
2019-03-18T11:56:27.390Z,99.90
2019-03-18T11:58:57.966Z,99.90
2019-03-18T12:01:28.729Z,99.90
2019-03-18T12:03:59.291Z,99.90
2019-03-18T12:06:30.157Z,99.90
2019-03-18T12:09:01.959Z,99.90
2019-03-18T12:11:32.547Z,1.00
2019-03-18T12:14:03.494Z,98.20
2019-03-18T12:16:34.152Z,1.00
2019-03-18T12:19:04.841Z,99.90
2019-03-18T12:21:35.485Z,99.90
2019-03-18T12:24:06.277Z,99.90
2019-03-18T12:26:36.886Z,99.90
2019-03-18T12:29:07.455Z,99.90
2019-03-18T12:31:38.884Z,99.90
2019-03-18T12:34:09.476Z,99.90
2019-03-18T12:36:40.158Z,99.90
2019-03-18T12:39:10.891Z,99.90
2019-03-18T12:41:41.503Z,99.90
2019-03-18T12:44:12.202Z,99.90
2019-03-18T12:46:42.958Z,1.00
2019-03-18T12:49:13.529Z,99.90
2019-03-18T12:51:44.591Z,99.90
2019-03-18T12:54:15.375Z,1.00
2019-03-18T12:56:45.967Z,99.90
2019-03-18T12:59:17.000Z,99.90
2019-03-18T13:01:48.237Z,99.90
2019-03-18T13:04:19.191Z,99.90
2019-03-18T13:06:50.117Z,99.90
2019-03-18T13:09:20.892Z,92.70
2019-03-18T13:11:51.852Z,93.10
2019-03-18T13:14:22.457Z,92.50
2019-03-18T13:16:53.648Z,92.50
2019-03-18T13:19:24.250Z,92.80
2019-03-18T13:21:54.923Z,93.00
2019-03-18T13:24:25.706Z,75.00
2019-03-18T13:26:58.696Z,50.90
2019-03-18T13:29:29.345Z,48.80
2019-03-18T13:31:59.950Z,64.20
2019-03-18T13:34:30.538Z,91.90
2019-03-18T13:37:01.122Z,64.50
2019-03-18T13:39:32.169Z,57.20
2019-03-18T13:42:03.109Z,62.10
2019-03-18T13:44:33.726Z,52.90
2019-03-18T13:47:04.450Z,55.20
2019-03-18T13:49:35.664Z,46.10
2019-03-18T13:52:06.252Z,43.40
2019-03-18T13:54:36.869Z,51.20
2019-03-18T13:57:07.458Z,69.70
2019-03-18T13:59:38.254Z,54.40
2019-03-18T14:02:09.219Z,89.00
2019-03-18T14:04:39.834Z,90.60
2019-03-18T14:07:10.605Z,82.60
2019-03-18T14:09:41.202Z,92.60
2019-03-18T14:12:11.777Z,91.30
2019-03-18T14:14:42.548Z,92.30
2019-03-18T14:17:13.155Z,99.90
2019-03-18T14:19:43.740Z,99.90
2019-03-18T14:22:14.838Z,99.90
2019-03-18T14:24:45.442Z,99.90
2019-03-18T14:27:16.043Z,1.00
2019-03-18T14:29:46.815Z,99.90
2019-03-18T14:32:17.426Z,99.90
2019-03-18T14:34:48.513Z,1.00
2019-03-18T14:37:19.280Z,1.00
2019-03-18T14:39:49.912Z,1.00
2019-03-18T14:42:20.443Z,99.90
2019-03-18T14:44:51.220Z,99.90
2019-03-18T14:47:21.708Z,99.90
2019-03-18T14:49:52.232Z,99.90
2019-03-18T14:52:23.014Z,1.00
2019-03-18T14:54:53.610Z,1.00
2019-03-18T14:57:24.202Z,1.00
2019-03-18T14:59:55.193Z,99.90
2019-03-18T15:02:26.070Z,99.90
2019-03-18T15:04:56.650Z,1.00
2019-03-18T15:07:28.191Z,1.00
2019-03-18T15:09:58.775Z,30.40
2019-03-18T15:12:29.353Z,99.90
2019-03-18T15:15:00.001Z,96.50
2019-03-18T15:17:30.634Z,1.00
2019-03-18T15:20:01.511Z,1.00
2019-03-18T15:22:32.214Z,1.00
2019-03-18T15:25:02.920Z,69.50
2019-03-18T15:27:33.514Z,99.90
2019-03-18T15:30:05.185Z,99.90
2019-03-18T15:32:35.786Z,1.00
2019-03-18T15:35:06.951Z,1.00
2019-03-18T15:37:37.663Z,99.90
2019-03-18T15:40:08.828Z,99.90
2019-03-18T15:42:39.448Z,99.90
2019-03-18T15:45:11.387Z,99.90
2019-03-18T15:47:41.971Z,99.90
2019-03-18T15:50:15.430Z,99.90
2019-03-18T15:52:46.158Z,99.90
2019-03-18T15:55:17.041Z,27.40
2019-03-18T15:57:47.750Z,10.00
2019-03-18T16:00:19.595Z,1.00
2019-03-18T16:02:50.304Z,7.80
2019-03-18T16:05:20.872Z,99.90
2019-03-18T16:07:51.582Z,99.90
2019-03-18T16:10:22.534Z,99.90
2019-03-18T16:12:53.834Z,99.90
2019-03-18T16:15:24.406Z,99.90
2019-03-18T16:17:55.098Z,1.00
2019-03-18T16:20:25.698Z,1.00
2019-03-18T16:22:56.357Z,1.00
2019-03-18T16:25:27.194Z,99.90
2019-03-18T16:27:58.156Z,19.40
2019-03-18T16:30:28.755Z,1.00
2019-03-18T16:32:59.520Z,1.00
2019-03-18T16:35:30.156Z,1.00
2019-03-18T16:38:00.738Z,1.00
2019-03-18T16:40:31.506Z,1.00
2019-03-18T16:43:02.093Z,99.90
2019-03-18T16:45:33.100Z,1.00
2019-03-18T16:48:03.812Z,1.00
2019-03-18T16:50:34.408Z,1.00
2019-03-18T16:53:04.967Z,99.90
2019-03-18T16:55:35.751Z,99.90
2019-03-18T16:58:06.345Z,99.90
2019-03-18T17:00:36.922Z,99.90
2019-03-18T17:03:07.516Z,99.90
2019-03-18T17:05:38.291Z,99.90
2019-03-18T17:08:08.882Z,99.90
2019-03-18T17:10:39.453Z,99.90
2019-03-18T17:13:10.225Z,99.90
2019-03-18T17:15:41.214Z,99.90
2019-03-18T17:18:11.879Z,99.90
2019-03-18T17:20:42.739Z,99.90
2019-03-18T17:23:13.342Z,99.90
2019-03-18T17:25:43.935Z,99.90
2019-03-18T17:28:14.987Z,99.90
2019-03-18T17:30:45.969Z,99.90
2019-03-18T17:33:16.970Z,99.90
2019-03-18T17:35:47.778Z,99.90
2019-03-18T17:38:18.733Z,99.90
2019-03-18T17:40:49.340Z,99.90
2019-03-18T17:43:20.293Z,99.90
2019-03-18T17:45:50.894Z,99.90
2019-03-18T17:48:21.585Z,99.90
2019-03-18T17:50:52.351Z,99.90
2019-03-18T17:53:22.925Z,99.90
2019-03-18T17:55:53.529Z,99.90
2019-03-18T17:58:24.245Z,99.90
2019-03-18T18:00:54.845Z,99.90
2019-03-18T18:03:25.423Z,99.90
2019-03-18T18:05:56.093Z,99.90
2019-03-18T18:08:26.951Z,65.70
2019-03-18T18:10:57.598Z,1.00
2019-03-18T18:13:28.339Z,9.00
2019-03-18T18:15:58.950Z,10.20
2019-03-18T18:18:29.499Z,1.00
2019-03-18T18:21:00.234Z,1.00
2019-03-18T18:23:31.116Z,1.00
2019-03-18T18:26:01.703Z,1.00
2019-03-18T18:28:33.100Z,1.00
2019-03-18T18:31:03.676Z,99.90
2019-03-18T18:33:34.263Z,1.00
2019-03-18T18:36:05.029Z,1.00
2019-03-18T18:38:35.640Z,1.00
2019-03-18T18:41:06.195Z,1.00
2019-03-18T18:43:36.958Z,1.00
2019-03-18T18:46:07.534Z,1.00
2019-03-18T18:48:38.116Z,1.00
2019-03-18T18:51:08.761Z,1.00
2019-03-18T18:53:39.358Z,1.00
2019-03-18T18:56:09.931Z,1.00
2019-03-18T18:58:40.645Z,1.00
2019-03-18T19:01:13.337Z,1.00
2019-03-18T19:03:43.551Z,1.00
2019-03-18T19:06:14.285Z,99.90
2019-03-18T19:08:44.890Z,99.90
2019-03-18T19:11:15.783Z,99.90
2019-03-18T19:13:46.553Z,99.90
2019-03-18T19:16:17.124Z,99.90
2019-03-18T19:18:47.734Z,99.90
2019-03-18T19:21:18.446Z,1.00
2019-03-18T19:23:49.054Z,1.00
2019-03-18T19:26:19.635Z,99.90
2019-03-18T19:28:50.363Z,1.00
2019-03-18T19:31:20.935Z,99.90
2019-03-18T19:33:51.684Z,99.90
2019-03-18T19:36:22.557Z,99.90
2019-03-18T19:38:53.499Z,99.90
2019-03-18T19:41:24.520Z,1.00
2019-03-18T19:43:55.333Z,1.00
2019-03-18T19:46:25.926Z,1.00
2019-03-18T19:48:56.631Z,1.00
2019-03-18T19:51:27.327Z,1.00
2019-03-18T19:53:57.920Z,1.00
2019-03-18T19:56:28.509Z,1.00
2019-03-18T19:58:59.241Z,1.00
2019-03-18T20:01:29.918Z,1.00
2019-03-18T20:04:00.646Z,1.00
2019-03-18T20:06:31.273Z,8.80
2019-03-18T20:09:02.735Z,84.30
2019-03-18T20:11:33.818Z,99.90
2019-03-18T20:14:04.513Z,99.90
2019-03-18T20:16:35.223Z,39.60
2019-03-18T20:19:06.483Z,14.30
2019-03-18T20:21:37.479Z,1.00
2019-03-18T20:24:08.457Z,1.00
2019-03-18T20:26:39.204Z,1.00
2019-03-18T20:29:10.352Z,20.00
2019-03-18T20:31:40.903Z,8.70
2019-03-18T20:34:11.538Z,14.30
2019-03-18T20:36:42.304Z,15.60
2019-03-18T20:39:12.863Z,21.80
2019-03-18T20:41:43.873Z,88.10
2019-03-18T20:44:15.271Z,97.70
2019-03-18T20:46:46.294Z,90.90
2019-03-18T20:49:17.152Z,74.50
2019-03-18T20:51:48.001Z,72.20
2019-03-18T20:54:19.123Z,75.00
2019-03-18T20:56:49.930Z,85.80
2019-03-18T20:59:20.895Z,80.60
2019-03-18T21:01:51.867Z,90.50
2019-03-18T21:04:22.805Z,99.90
2019-03-18T21:06:53.882Z,99.90
2019-03-18T21:09:24.758Z,99.90
2019-03-18T21:11:55.532Z,99.90
2019-03-18T21:14:26.191Z,99.90
2019-03-18T21:16:57.069Z,99.90
2019-03-18T21:19:27.962Z,99.90
2019-03-18T21:21:58.722Z,99.90
2019-03-18T21:24:29.321Z,99.90
2019-03-18T21:27:00.829Z,99.90
2019-03-18T21:29:32.316Z,99.90
2019-03-18T21:32:03.220Z,99.90
2019-03-18T21:34:33.969Z,99.90
2019-03-18T21:37:04.701Z,99.90
2019-03-18T21:39:35.403Z,99.90
2019-03-18T21:42:06.564Z,99.90
2019-03-18T21:44:37.636Z,99.90
2019-03-18T21:47:08.445Z,99.90
2019-03-18T21:49:39.354Z,99.90
2019-03-18T21:52:10.027Z,99.90
2019-03-18T21:54:41.045Z,99.90
2019-03-18T21:57:12.168Z,99.90
2019-03-18T21:59:43.454Z,99.90
2019-03-18T22:02:14.071Z,99.90
2019-03-18T22:04:45.539Z,99.90
2019-03-18T22:07:16.221Z,99.90
2019-03-18T22:09:47.477Z,99.90
2019-03-18T22:12:18.759Z,99.90
2019-03-18T22:14:49.623Z,99.90
2019-03-18T22:17:20.329Z,99.90
2019-03-18T22:19:51.097Z,99.90
2019-03-18T22:22:22.125Z,99.90
2019-03-18T22:24:52.821Z,99.90
2019-03-18T22:27:23.513Z,99.90
2019-03-18T22:29:54.118Z,99.90
2019-03-18T22:32:25.126Z,99.90
2019-03-18T22:34:55.708Z,99.90
2019-03-18T22:37:26.385Z,99.90
2019-03-18T22:39:57.219Z,99.90
2019-03-18T22:42:28.716Z,99.90
2019-03-18T22:44:59.443Z,99.90
2019-03-18T22:47:30.092Z,99.90
2019-03-18T22:50:01.002Z,99.90
2019-03-18T22:52:31.675Z,99.90
2019-03-18T22:55:02.872Z,99.90
2019-03-18T22:57:33.522Z,99.90
2019-03-18T23:00:04.799Z,99.90
2019-03-18T23:02:35.527Z,99.90
2019-03-18T23:05:06.913Z,99.90
2019-03-18T23:07:37.486Z,99.90
2019-03-18T23:10:08.341Z,99.90
2019-03-18T23:12:38.918Z,99.90
2019-03-18T23:15:09.752Z,99.90
2019-03-18T23:17:40.547Z,99.90
2019-03-18T23:20:11.258Z,99.90
2019-03-18T23:22:41.944Z,99.90
2019-03-18T23:25:12.539Z,99.90
2019-03-18T23:27:43.220Z,99.90
2019-03-18T23:30:13.830Z,99.90
2019-03-18T23:32:44.501Z,99.90
2019-03-18T23:35:15.543Z,99.90
2019-03-18T23:37:46.135Z,99.90
2019-03-18T23:40:16.720Z,99.90
2019-03-18T23:42:47.401Z,99.90
2019-03-18T23:45:17.996Z,99.90
2019-03-18T23:47:48.583Z,99.90
2019-03-18T23:50:19.315Z,99.90
2019-03-18T23:52:50.328Z,99.90
2019-03-18T23:55:20.978Z,99.90
2019-03-18T23:57:54.188Z,99.90
